CKF8 weather

Kirby Field
Cookstown, Ontario, Canada

Public forecast

Using degrees Celsius for public forecast. Weather courtesy of forecast.io.

Closest aviation weather report (METAR) to Kirby Field

Closest report is CFB Borden, 11.6 nm (21.5 km) NW. Retrieved 2019/10/15 17:00 UTC (24 minutes ago):

CYBN 151700Z AUTO 19011KT 140V210 13/04 A3002 RMK SLP168

Closest aviation forecast (TAF) to Kirby Field

Forecast is more than 6 hours old.

Closest forecast is CFB Borden, 11.6 nm (21.5 km) NW. Retrieved 2019/10/15 10:18 UTC (7 hours ago):

TAF TAF CYBN 151015Z 1510/1522 25005KT P6SM FEW250 FM151400 20008KT P6SM SCT150 RMK FCST BASED ON AUTO OBS NXT FCST BY 151200Z